createdAt,value
2018-07-09T00:01:30.402Z,4.00
2018-07-09T00:03:58.472Z,3.87
2018-07-09T00:06:26.588Z,3.03
2018-07-09T00:08:55.252Z,3.60
2018-07-09T00:11:23.430Z,3.10
2018-07-09T00:13:51.516Z,3.60
2018-07-09T00:16:19.585Z,3.83
2018-07-09T00:18:47.666Z,3.70
2018-07-09T00:21:15.729Z,4.33
2018-07-09T00:23:43.773Z,4.27
2018-07-09T00:26:11.833Z,4.30
2018-07-09T00:28:39.920Z,3.93
2018-07-09T00:31:07.984Z,4.40
2018-07-09T00:33:36.047Z,4.90
2018-07-09T00:36:04.160Z,4.47
2018-07-09T00:38:32.212Z,4.00
2018-07-09T00:41:00.298Z,4.73
2018-07-09T00:43:28.333Z,4.70
2018-07-09T00:45:56.404Z,5.07
2018-07-09T00:48:24.464Z,4.57
2018-07-09T00:50:52.546Z,4.73
2018-07-09T00:53:20.616Z,4.13
2018-07-09T00:55:48.684Z,4.73
2018-07-09T00:58:16.730Z,3.80
2018-07-09T01:00:44.792Z,4.20
2018-07-09T01:03:12.918Z,3.60
2018-07-09T01:05:40.988Z,4.77
2018-07-09T01:08:09.076Z,4.53
2018-07-09T01:11:48.103Z,4.33
2018-07-09T01:14:16.213Z,5.13
2018-07-09T01:16:44.322Z,4.40
2018-07-09T01:19:12.422Z,4.83
2018-07-09T01:21:40.522Z,4.23
2018-07-09T01:24:08.589Z,5.27
2018-07-09T01:26:36.710Z,4.17
2018-07-09T01:29:04.636Z,4.80
2018-07-09T01:31:32.782Z,4.30
2018-07-09T01:34:00.880Z,5.73
2018-07-09T01:36:28.928Z,5.17
2018-07-09T01:38:56.976Z,4.90
2018-07-09T01:41:25.088Z,4.97
2018-07-09T01:43:53.125Z,4.47
2018-07-09T01:46:21.203Z,5.70
2018-07-09T01:48:49.261Z,5.43
2018-07-09T01:51:17.322Z,4.97
2018-07-09T01:53:45.450Z,5.10
2018-07-09T01:56:13.513Z,4.80
2018-07-09T01:58:41.589Z,4.27
2018-07-09T02:01:09.697Z,4.43
2018-07-09T02:03:37.929Z,5.73
2018-07-09T02:06:05.956Z,4.97
2018-07-09T02:08:34.033Z,5.13
2018-07-09T02:11:02.108Z,5.00
2018-07-09T02:13:30.188Z,4.47
2018-07-09T02:15:58.229Z,4.60
2018-07-09T02:18:26.260Z,4.23
2018-07-09T02:20:54.336Z,5.10
2018-07-09T02:23:22.408Z,5.13
2018-07-09T02:25:50.458Z,4.87
2018-07-09T02:28:18.794Z,5.27
2018-07-09T02:30:46.968Z,4.63
2018-07-09T02:33:15.042Z,5.00
2018-07-09T02:35:43.137Z,5.60
2018-07-09T02:38:11.095Z,4.97
2018-07-09T02:40:39.156Z,4.43
2018-07-09T02:43:07.201Z,5.40
2018-07-09T02:45:35.645Z,4.80
2018-07-09T02:48:03.574Z,4.70
2018-07-09T02:50:31.621Z,3.93
2018-07-09T02:52:59.739Z,4.60
2018-07-09T02:55:27.820Z,4.83
2018-07-09T02:57:55.881Z,4.07
2018-07-09T03:00:23.987Z,4.20
2018-07-09T03:02:52.080Z,4.63
2018-07-09T03:05:20.289Z,4.63
2018-07-09T03:07:48.335Z,5.13
2018-07-09T03:10:16.456Z,5.37
2018-07-09T03:12:44.485Z,5.53
2018-07-09T03:15:12.529Z,4.67
2018-07-09T03:17:40.589Z,4.97
2018-07-09T03:20:08.658Z,5.73
2018-07-09T03:22:36.752Z,5.40
2018-07-09T03:25:04.847Z,5.13
2018-07-09T03:27:32.885Z,4.73
2018-07-09T03:30:00.961Z,4.67
2018-07-09T03:32:29.056Z,4.30
2018-07-09T03:34:57.125Z,3.93
2018-07-09T03:37:25.254Z,5.00
2018-07-09T03:39:53.325Z,4.57
2018-07-09T03:42:21.424Z,4.40
2018-07-09T03:44:49.493Z,4.33
2018-07-09T03:47:18.136Z,4.83
2018-07-09T03:49:46.215Z,4.50
2018-07-09T03:52:14.296Z,4.73
2018-07-09T03:54:42.376Z,4.63
2018-07-09T03:57:10.404Z,4.40
2018-07-09T03:59:38.477Z,4.10
2018-07-09T04:02:06.621Z,4.40
2018-07-09T04:04:34.656Z,4.77
2018-07-09T04:07:02.737Z,4.50
2018-07-09T04:09:30.888Z,4.70
2018-07-09T04:11:58.936Z,4.23
2018-07-09T04:14:27.016Z,4.00
2018-07-09T04:16:55.069Z,4.97
2018-07-09T04:19:23.096Z,4.40
2018-07-09T04:21:51.996Z,4.40
2018-07-09T04:24:20.061Z,4.43
2018-07-09T04:26:48.124Z,4.50
2018-07-09T04:29:16.173Z,4.23
2018-07-09T04:31:44.285Z,4.43
2018-07-09T04:34:12.381Z,4.83
2018-07-09T04:36:40.450Z,5.53
2018-07-09T04:39:08.674Z,4.47
2018-07-09T04:41:36.852Z,5.27
2018-07-09T04:44:05.065Z,4.90
2018-07-09T04:46:33.129Z,4.47
2018-07-09T04:49:01.472Z,4.03
2018-07-09T04:51:29.716Z,5.20
2018-07-09T04:53:57.870Z,4.20
2018-07-09T04:56:26.618Z,4.43
2018-07-09T04:58:54.697Z,4.37
2018-07-09T05:01:22.784Z,5.37
2018-07-09T05:03:50.887Z,3.87
2018-07-09T05:06:18.987Z,4.27
2018-07-09T05:08:47.048Z,5.07
2018-07-09T05:11:15.104Z,5.07
2018-07-09T05:13:43.191Z,4.97
2018-07-09T05:16:11.253Z,4.47
2018-07-09T05:18:39.308Z,4.90
2018-07-09T05:21:07.440Z,4.60
2018-07-09T05:23:35.496Z,4.53
2018-07-09T05:26:03.648Z,4.93
2018-07-09T05:28:31.700Z,4.80
2018-07-09T05:30:59.864Z,5.40
2018-07-09T05:33:27.924Z,4.90
2018-07-09T05:35:55.988Z,4.63
2018-07-09T05:38:24.613Z,4.87
2018-07-09T05:40:53.294Z,4.50
2018-07-09T05:43:21.353Z,4.40
2018-07-09T05:45:49.440Z,5.30
2018-07-09T05:48:17.580Z,4.10
2018-07-09T05:50:45.447Z,4.07
2018-07-09T05:53:13.546Z,4.33
2018-07-09T05:55:41.632Z,4.90
2018-07-09T05:58:09.676Z,4.10
2018-07-09T06:00:37.733Z,4.63
2018-07-09T06:03:05.868Z,4.10
2018-07-09T06:05:33.974Z,4.40
2018-07-09T06:08:02.017Z,3.83
2018-07-09T06:10:30.176Z,4.93
2018-07-09T06:12:58.232Z,5.37
2018-07-09T06:15:26.288Z,5.70
2018-07-09T06:17:54.381Z,5.37
2018-07-09T06:20:22.425Z,5.23
2018-07-09T06:22:50.580Z,5.07
2018-07-09T06:25:18.689Z,5.17
2018-07-09T06:27:46.756Z,4.50
2018-07-09T06:30:14.888Z,4.67
2018-07-09T06:32:42.737Z,4.17
2018-07-09T06:35:10.809Z,5.17
2018-07-09T06:37:38.858Z,4.40
2018-07-09T06:40:07.024Z,4.43
2018-07-09T06:42:35.135Z,5.50
2018-07-09T06:45:03.300Z,5.43
2018-07-09T06:47:31.370Z,4.60
2018-07-09T06:49:59.476Z,5.40
2018-07-09T06:52:27.469Z,5.00
2018-07-09T06:54:55.521Z,4.37
2018-07-09T06:57:23.592Z,4.70
2018-07-09T06:59:51.662Z,4.47
2018-07-09T07:02:19.807Z,5.77
2018-07-09T07:04:47.845Z,5.00
2018-07-09T07:07:15.910Z,4.53
2018-07-09T07:09:43.988Z,5.17
2018-07-09T07:12:12.072Z,6.10
2018-07-09T07:14:40.105Z,6.00
2018-07-09T07:17:08.236Z,4.97
2018-07-09T07:19:36.321Z,5.37
2018-07-09T07:22:04.377Z,4.90
2018-07-09T07:24:33.629Z,5.53
2018-07-09T07:27:02.609Z,5.00
2018-07-09T07:29:31.044Z,5.63
2018-07-09T07:32:03.476Z,5.30
2018-07-09T07:34:31.436Z,5.13
2018-07-09T07:37:08.268Z,5.57
2018-07-09T07:39:36.709Z,5.03
2018-07-09T07:42:04.850Z,5.60
2018-07-09T07:44:32.912Z,5.03
2018-07-09T07:47:00.964Z,6.03
2018-07-09T07:49:31.315Z,5.33
2018-07-09T07:51:59.353Z,5.30
2018-07-09T07:54:27.459Z,5.20
2018-07-09T07:56:55.547Z,5.10
2018-07-09T07:59:23.609Z,5.03
2018-07-09T08:01:51.657Z,3.97
2018-07-09T08:04:19.764Z,5.33
2018-07-09T08:06:47.808Z,4.40
2018-07-09T08:09:15.984Z,4.87
2018-07-09T08:11:48.564Z,4.37
2018-07-09T08:14:12.143Z,4.10
2018-07-09T08:16:40.361Z,3.73
2018-07-09T08:19:08.436Z,3.40
2018-07-09T08:21:36.726Z,3.83
2018-07-09T08:24:04.801Z,3.73
2018-07-09T08:26:32.856Z,4.10
2018-07-09T08:29:00.924Z,4.10
2018-07-09T08:31:28.993Z,3.97
2018-07-09T08:33:57.060Z,3.87
2018-07-09T08:36:25.129Z,3.80
2018-07-09T08:38:53.193Z,2.93
2018-07-09T08:41:21.256Z,3.17
2018-07-09T08:43:49.364Z,2.80
2018-07-09T08:46:17.428Z,2.53
2018-07-09T08:48:45.496Z,3.10
2018-07-09T08:51:13.516Z,3.47
2018-07-09T08:53:41.597Z,3.10
2018-07-09T08:56:09.652Z,3.07
2018-07-09T08:58:37.812Z,2.63
2018-07-09T09:01:05.897Z,2.50
2018-07-09T09:03:34.070Z,2.90
2018-07-09T09:06:02.114Z,2.00
2018-07-09T09:08:30.189Z,1.93
2018-07-09T09:10:58.036Z,2.37
2018-07-09T09:13:26.069Z,2.37
2018-07-09T09:15:54.136Z,2.70
2018-07-09T09:18:22.196Z,2.00
2018-07-09T09:20:50.229Z,2.80
2018-07-09T09:23:18.297Z,2.27
2018-07-09T09:25:46.384Z,2.27
2018-07-09T09:28:14.425Z,2.07
2018-07-09T09:30:42.460Z,2.73
2018-07-09T09:33:10.531Z,2.53
2018-07-09T09:35:38.582Z,2.80
2018-07-09T09:38:07.341Z,2.23
2018-07-09T09:40:35.371Z,3.13
2018-07-09T09:43:03.460Z,2.43
2018-07-09T09:45:31.561Z,1.80
2018-07-09T09:47:59.616Z,2.20
2018-07-09T09:50:27.649Z,1.90
2018-07-09T09:52:55.744Z,2.00
2018-07-09T09:55:23.871Z,1.80
2018-07-09T09:57:51.920Z,2.27
2018-07-09T10:00:24.229Z,1.70
2018-07-09T10:02:52.278Z,2.10
2018-07-09T10:05:20.325Z,1.87
2018-07-09T10:07:48.373Z,1.63
2018-07-09T10:10:16.465Z,2.10
2018-07-09T10:12:44.516Z,2.33
2018-07-09T10:15:12.574Z,2.20
2018-07-09T10:17:40.641Z,1.80
2018-07-09T10:20:08.680Z,2.10
2018-07-09T10:22:36.769Z,1.37
2018-07-09T10:25:04.860Z,1.83
2018-07-09T10:27:32.933Z,1.93
2018-07-09T10:30:01.013Z,2.10
2018-07-09T10:32:29.076Z,1.90
2018-07-09T10:34:57.132Z,2.03
2018-07-09T10:37:25.196Z,2.27
2018-07-09T10:39:53.246Z,1.53
2018-07-09T10:42:21.280Z,1.73
2018-07-09T10:44:49.133Z,1.60
2018-07-09T10:47:17.198Z,1.57
2018-07-09T10:49:45.247Z,1.70
2018-07-09T10:52:13.309Z,2.10
2018-07-09T10:54:41.364Z,1.60
2018-07-09T10:57:09.416Z,2.97
2018-07-09T10:59:37.478Z,1.67
2018-07-09T11:02:05.808Z,2.87
2018-07-09T11:04:33.880Z,2.40
2018-07-09T11:07:02.412Z,1.83
2018-07-09T11:09:31.594Z,2.20
2018-07-09T11:11:59.785Z,1.20
2018-07-09T11:14:27.860Z,1.87
2018-07-09T11:16:56.104Z,1.83
2018-07-09T11:19:31.010Z,1.47
2018-07-09T11:21:59.101Z,1.40
2018-07-09T11:24:27.356Z,1.67
2018-07-09T11:26:55.418Z,1.60
2018-07-09T11:29:26.611Z,1.77
2018-07-09T11:31:55.037Z,1.67
2018-07-09T11:34:23.908Z,1.10
2018-07-09T11:36:51.973Z,1.63
2018-07-09T11:39:20.024Z,1.53
2018-07-09T11:41:48.057Z,1.93
2018-07-09T11:44:16.321Z,1.20
2018-07-09T11:46:44.373Z,1.57
2018-07-09T11:49:12.778Z,1.40
2018-07-09T11:51:40.837Z,1.67
2018-07-09T11:54:09.065Z,0.90
2018-07-09T11:56:37.247Z,1.27
2018-07-09T11:59:05.385Z,2.10
2018-07-09T12:01:33.445Z,1.53
2018-07-09T12:04:01.301Z,1.50
2018-07-09T12:06:29.247Z,1.47
2018-07-09T12:08:57.320Z,1.43
2018-07-09T12:11:26.188Z,1.37
2018-07-09T12:13:54.160Z,1.60
2018-07-09T12:16:22.289Z,1.30
2018-07-09T12:18:50.340Z,1.43
2018-07-09T12:21:18.407Z,0.97
2018-07-09T12:23:46.457Z,1.60
2018-07-09T12:26:14.540Z,1.47
2018-07-09T12:28:42.569Z,1.67
2018-07-09T12:31:10.661Z,1.70
2018-07-09T12:33:38.700Z,1.80
2018-07-09T12:36:07.037Z,1.30
2018-07-09T12:38:35.029Z,2.80
2018-07-09T12:41:03.068Z,2.50
2018-07-09T12:43:30.940Z,2.50
2018-07-09T12:45:58.981Z,2.43
2018-07-09T12:48:27.088Z,2.27
2018-07-09T12:50:55.173Z,2.03
2018-07-09T12:53:23.650Z,1.50
2018-07-09T12:55:51.730Z,1.47
2018-07-09T12:58:19.736Z,2.07
2018-07-09T13:00:47.848Z,1.83
2018-07-09T13:03:15.905Z,1.13
2018-07-09T13:05:43.977Z,1.57
2018-07-09T13:08:12.054Z,1.97
2018-07-09T13:10:41.091Z,1.17
2018-07-09T13:13:09.233Z,1.20
2018-07-09T13:15:37.301Z,1.40
2018-07-09T13:18:05.370Z,1.33
2018-07-09T13:20:33.522Z,1.83
2018-07-09T13:23:01.597Z,1.77
2018-07-09T13:25:29.513Z,1.40
2018-07-09T13:27:57.956Z,1.50
2018-07-09T13:30:26.140Z,1.47
2018-07-09T13:32:54.204Z,1.37
2018-07-09T13:35:22.549Z,1.53
2018-07-09T13:37:50.747Z,1.30
2018-07-09T13:40:18.724Z,2.17
2018-07-09T13:42:46.860Z,2.20
2018-07-09T13:45:15.557Z,1.97
2018-07-09T13:47:44.177Z,1.63
2018-07-09T13:50:12.040Z,1.67
2018-07-09T13:52:40.090Z,1.57
2018-07-09T13:55:08.152Z,1.67
2018-07-09T13:57:36.311Z,1.30
2018-07-09T14:00:05.321Z,1.80
2018-07-09T14:02:33.371Z,1.30
2018-07-09T14:05:01.224Z,1.07
2018-07-09T14:07:29.416Z,1.73
2018-07-09T14:09:57.460Z,1.93
2018-07-09T14:12:27.319Z,1.73
2018-07-09T14:14:56.513Z,1.60
2018-07-09T14:17:24.610Z,1.63
2018-07-09T14:20:55.900Z,1.70
2018-07-09T14:23:23.963Z,1.60
2018-07-09T14:25:52.316Z,1.80
2018-07-09T14:28:23.460Z,1.67
2018-07-09T14:30:51.625Z,2.37
2018-07-09T14:33:19.695Z,1.70
2018-07-09T14:35:47.992Z,1.60
2018-07-09T14:38:16.131Z,1.63
2018-07-09T14:40:44.292Z,1.97
2018-07-09T14:43:12.569Z,1.23
2018-07-09T14:45:40.696Z,1.43
2018-07-09T14:48:09.132Z,1.87
2018-07-09T14:50:36.981Z,2.73
2018-07-09T14:53:05.069Z,1.67
2018-07-09T14:55:33.121Z,2.27
2018-07-09T14:58:01.170Z,2.87
2018-07-09T15:00:29.227Z,1.70
2018-07-09T15:02:57.268Z,2.20
2018-07-09T15:05:25.337Z,1.60
2018-07-09T15:07:53.422Z,2.63
2018-07-09T15:10:21.476Z,1.20
2018-07-09T15:12:49.504Z,1.73
2018-07-09T15:15:17.568Z,1.27
2018-07-09T15:17:46.885Z,1.93
2018-07-09T15:20:15.008Z,2.13
2018-07-09T15:22:43.096Z,1.53
2018-07-09T15:25:11.149Z,1.40
2018-07-09T15:27:39.205Z,1.33
2018-07-09T15:30:07.266Z,1.33
2018-07-09T15:32:35.480Z,0.67
2018-07-09T15:35:03.636Z,1.47
2018-07-09T15:37:31.706Z,0.93
2018-07-09T15:39:59.767Z,1.30
2018-07-09T15:42:27.896Z,1.13
2018-07-09T15:44:56.053Z,1.20
2018-07-09T15:47:24.096Z,1.47
2018-07-09T15:49:52.160Z,1.37
2018-07-09T15:52:20.207Z,1.50
2018-07-09T15:54:48.371Z,1.53
2018-07-09T15:57:16.424Z,1.50
2018-07-09T15:59:44.485Z,1.53
2018-07-09T16:02:12.655Z,1.30
2018-07-09T16:04:40.748Z,1.97
2018-07-09T16:07:08.608Z,1.93
2018-07-09T16:09:36.650Z,1.60
2018-07-09T16:12:04.705Z,1.77
2018-07-09T16:14:32.751Z,1.00
2018-07-09T16:17:00.806Z,2.03
2018-07-09T16:19:28.849Z,1.70
2018-07-09T16:21:56.950Z,1.73
2018-07-09T16:24:25.045Z,1.73
2018-07-09T16:26:53.172Z,1.43
2018-07-09T16:29:21.434Z,1.87
2018-07-09T16:31:49.333Z,1.70
2018-07-09T16:34:17.428Z,1.73
2018-07-09T16:36:45.571Z,1.73
2018-07-09T16:39:13.616Z,1.43
2018-07-09T16:41:41.668Z,1.43
2018-07-09T16:44:09.727Z,1.47
2018-07-09T16:46:37.863Z,1.10
2018-07-09T16:49:05.856Z,1.70
2018-07-09T16:51:33.937Z,1.10
2018-07-09T16:54:02.029Z,1.00
2018-07-09T16:56:30.111Z,1.27
2018-07-09T16:58:58.185Z,1.90
2018-07-09T17:01:26.244Z,1.57
2018-07-09T17:03:54.302Z,0.97
2018-07-09T17:06:22.364Z,1.90
2018-07-09T17:08:50.440Z,1.90
2018-07-09T17:11:18.542Z,1.50
2018-07-09T17:13:46.908Z,1.37
2018-07-09T17:16:14.975Z,1.93
2018-07-09T17:18:43.045Z,1.57
2018-07-09T17:21:11.269Z,1.67
2018-07-09T17:23:39.344Z,1.30
2018-07-09T17:26:07.410Z,1.83
2018-07-09T17:28:35.563Z,2.03
2018-07-09T17:31:03.704Z,1.80
2018-07-09T17:33:31.800Z,1.50
2018-07-09T17:35:59.928Z,1.33
2018-07-09T17:38:28.016Z,1.97
2018-07-09T17:40:56.133Z,1.83
2018-07-09T17:43:25.031Z,2.40
2018-07-09T17:45:53.627Z,1.40
2018-07-09T17:48:22.254Z,1.70
2018-07-09T17:50:51.120Z,1.80
2018-07-09T17:53:19.256Z,1.50
2018-07-09T17:55:47.489Z,1.83
2018-07-09T17:58:15.581Z,1.77
2018-07-09T18:00:43.724Z,1.13
2018-07-09T18:03:12.207Z,1.53
2018-07-09T18:05:40.297Z,1.53
2018-07-09T18:08:08.415Z,2.23
2018-07-09T18:10:36.637Z,2.70
2018-07-09T18:13:04.597Z,1.97
2018-07-09T18:15:32.609Z,1.00
2018-07-09T18:18:00.641Z,1.43
2018-07-09T18:20:28.716Z,1.17
2018-07-09T18:22:56.824Z,1.33
2018-07-09T18:25:24.906Z,1.43
2018-07-09T18:27:52.953Z,1.30
2018-07-09T18:30:21.090Z,1.37
2018-07-09T18:32:49.148Z,1.30
2018-07-09T18:35:17.220Z,1.50
2018-07-09T18:37:45.248Z,1.90
2018-07-09T18:40:13.109Z,1.60
2018-07-09T18:42:41.254Z,1.53
2018-07-09T18:45:09.324Z,1.43
2018-07-09T18:47:37.432Z,2.47
2018-07-09T18:50:06.304Z,1.20
2018-07-09T18:52:34.360Z,1.80
2018-07-09T18:55:02.433Z,1.90
2018-07-09T18:57:30.476Z,1.70
2018-07-09T18:59:58.733Z,1.23
2018-07-09T19:02:28.782Z,1.57
2018-07-09T19:04:57.110Z,1.03
2018-07-09T19:07:28.789Z,1.23
2018-07-09T19:09:56.851Z,1.43
2018-07-09T19:12:29.166Z,1.30
2018-07-09T19:14:57.325Z,1.53
2018-07-09T19:18:06.470Z,1.43
2018-07-09T19:21:18.112Z,1.50
2018-07-09T19:23:45.331Z,1.60
2018-07-09T19:26:12.538Z,2.13
2018-07-09T19:28:39.706Z,1.83
2018-07-09T19:31:06.977Z,2.00
2018-07-09T19:33:34.276Z,0.93
2018-07-09T19:36:01.442Z,1.47
2018-07-09T19:38:28.608Z,1.80
2018-07-09T19:40:55.756Z,1.77
2018-07-09T19:43:23.029Z,1.97
2018-07-09T19:45:50.700Z,1.73
2018-07-09T19:48:18.875Z,2.10
2018-07-09T19:50:46.960Z,1.53
2018-07-09T19:53:14.616Z,4.63
2018-07-09T19:55:42.304Z,2.17
2018-07-09T19:58:09.498Z,1.93
2018-07-09T20:00:38.015Z,1.27
2018-07-09T20:03:06.961Z,1.70
2018-07-09T20:05:34.181Z,1.60
2018-07-09T20:08:01.812Z,0.90
2018-07-09T20:10:34.861Z,1.10
2018-07-09T20:13:05.045Z,1.07
2018-07-09T20:15:37.593Z,1.00
2018-07-09T20:18:04.872Z,1.20
2018-07-09T20:20:32.608Z,2.20
2018-07-09T20:22:59.778Z,1.40
2018-07-09T20:25:26.944Z,1.27
2018-07-09T20:27:54.084Z,1.60
2018-07-09T20:30:21.245Z,1.40
2018-07-09T20:32:48.438Z,0.80
2018-07-09T20:35:15.731Z,1.10
2018-07-09T20:37:43.022Z,1.17
2018-07-09T20:40:10.282Z,1.30
2018-07-09T20:42:37.710Z,1.30
2018-07-09T20:45:04.917Z,1.80
2018-07-09T20:47:32.056Z,1.23
2018-07-09T20:49:59.212Z,1.70
2018-07-09T20:52:26.375Z,1.20
2018-07-09T20:54:53.526Z,1.37
2018-07-09T20:57:20.689Z,1.00
2018-07-09T20:59:47.825Z,0.90
2018-07-09T21:02:15.045Z,0.83
2018-07-09T21:04:42.236Z,1.20
2018-07-09T21:07:09.368Z,0.90
2018-07-09T21:09:36.529Z,1.00
2018-07-09T21:12:04.861Z,1.20
2018-07-09T21:14:31.999Z,1.30
2018-07-09T21:16:59.165Z,1.07
2018-07-09T21:19:26.303Z,1.13
2018-07-09T21:21:53.453Z,1.33
2018-07-09T21:24:20.621Z,1.17
2018-07-09T21:26:47.770Z,1.60
2018-07-09T21:29:14.953Z,1.00
2018-07-09T21:31:42.566Z,1.27
2018-07-09T21:34:09.752Z,1.27
2018-07-09T21:36:36.914Z,0.93
2018-07-09T21:39:04.698Z,1.40
2018-07-09T21:41:31.837Z,1.43
2018-07-09T21:44:00.050Z,1.10
2018-07-09T21:46:27.308Z,0.70
2018-07-09T21:48:54.547Z,0.97
2018-07-09T21:51:21.701Z,1.20
2018-07-09T21:53:48.852Z,0.90
2018-07-09T21:56:16.008Z,1.57
2018-07-09T21:58:43.308Z,1.00
2018-07-09T22:01:10.474Z,1.40
2018-07-09T22:03:37.646Z,1.33
2018-07-09T22:06:04.797Z,1.93
2018-07-09T22:08:31.937Z,1.47
2018-07-09T22:10:59.117Z,1.80
2018-07-09T22:13:26.280Z,1.87
2018-07-09T22:15:53.426Z,0.97
2018-07-09T22:18:22.067Z,1.57
2018-07-09T22:20:49.283Z,0.90
2018-07-09T22:23:16.451Z,1.23
2018-07-09T22:25:43.888Z,0.83
2018-07-09T22:28:11.053Z,1.10
2018-07-09T22:30:39.084Z,1.60
2018-07-09T22:33:07.173Z,1.07
2018-07-09T22:35:35.225Z,1.47
2018-07-09T22:38:03.325Z,1.47
2018-07-09T22:40:31.416Z,1.00
2018-07-09T22:43:04.996Z,1.20
2018-07-09T22:45:33.062Z,1.33
2018-07-09T22:48:01.133Z,0.83
2018-07-09T22:50:29.245Z,1.00
2018-07-09T22:52:57.280Z,1.57
2018-07-09T22:55:36.988Z,1.07
2018-07-09T22:58:05.218Z,1.10
2018-07-09T23:00:33.304Z,1.10
2018-07-09T23:03:09.488Z,1.23
2018-07-09T23:05:38.109Z,1.17
2018-07-09T23:08:06.529Z,1.60
2018-07-09T23:13:19.024Z,1.20
2018-07-09T23:15:58.725Z,0.87
2018-07-09T23:18:38.989Z,1.30
2018-07-09T23:21:19.202Z,1.17
2018-07-09T23:23:46.355Z,1.40
2018-07-09T23:26:13.512Z,1.17
2018-07-09T23:28:40.777Z,1.00
2018-07-09T23:31:07.945Z,1.20
2018-07-09T23:33:35.133Z,1.07
2018-07-09T23:36:02.262Z,1.30
2018-07-09T23:38:29.438Z,0.93
2018-07-09T23:40:56.589Z,1.33
2018-07-09T23:43:23.764Z,1.23
2018-07-09T23:45:50.913Z,1.37
2018-07-09T23:48:18.090Z,1.57
2018-07-09T23:50:45.221Z,1.23
2018-07-09T23:53:12.370Z,1.50
2018-07-09T23:55:44.065Z,1.03
2018-07-09T23:58:23.850Z,1.97
